createdAt,value
2022-10-28T00:00:33.698Z,14.14
2022-10-28T00:01:33.640Z,14.04
2022-10-28T00:02:33.606Z,14.07
2022-10-28T00:03:33.535Z,14.11
2022-10-28T00:04:33.489Z,14.14
2022-10-28T00:05:33.467Z,14.12
2022-10-28T00:06:33.495Z,14.08
2022-10-28T00:07:33.402Z,14.12
2022-10-28T00:08:33.364Z,14.11
2022-10-28T00:09:34.028Z,14.11
2022-10-28T00:10:33.296Z,14.18
2022-10-28T00:11:33.382Z,14.11
2022-10-28T00:12:33.998Z,14.14
2022-10-28T00:13:33.195Z,14.12
2022-10-28T00:14:33.174Z,14.08
2022-10-28T00:15:33.142Z,14.22
2022-10-28T00:16:33.187Z,14.11
2022-10-28T00:17:33.098Z,14.18
2022-10-28T00:18:33.062Z,14.18
2022-10-28T00:19:33.021Z,14.17
2022-10-28T00:20:33.000Z,14.12
2022-10-28T00:21:33.054Z,14.14
2022-10-28T00:22:32.942Z,14.17
2022-10-28T00:23:32.894Z,14.20
2022-10-28T00:24:32.871Z,14.20
2022-10-28T00:25:35.897Z,14.22
2022-10-28T00:26:32.884Z,14.22
2022-10-28T00:27:32.754Z,14.26
2022-10-28T00:28:32.726Z,14.28
2022-10-28T00:29:33.392Z,14.30
2022-10-28T00:30:32.674Z,14.30
2022-10-28T00:31:32.688Z,14.32
2022-10-28T00:32:33.554Z,14.30
2022-10-28T00:33:32.577Z,14.32
2022-10-28T00:34:32.541Z,14.30
2022-10-28T00:35:32.525Z,14.33
2022-10-28T00:36:32.543Z,14.30
2022-10-28T00:37:32.555Z,14.30
2022-10-28T00:38:32.410Z,14.30
2022-10-28T00:39:32.373Z,14.30
2022-10-28T00:40:32.374Z,14.22
2022-10-28T00:41:32.353Z,14.32
2022-10-28T00:42:32.365Z,14.26
2022-10-28T00:43:32.254Z,14.22
2022-10-28T00:44:32.252Z,14.29
2022-10-28T00:45:32.191Z,14.22
2022-10-28T00:46:32.177Z,14.29
2022-10-28T00:47:32.200Z,14.28
2022-10-28T00:48:32.165Z,14.32
2022-10-28T00:49:32.084Z,14.23
2022-10-28T00:50:32.121Z,14.32
2022-10-28T00:51:32.044Z,14.28
2022-10-28T00:52:31.966Z,14.33
2022-10-28T00:53:32.026Z,14.20
2022-10-28T00:54:31.934Z,14.28
2022-10-28T00:55:31.899Z,14.23
2022-10-28T00:56:31.856Z,14.22
2022-10-28T00:57:31.927Z,14.26
2022-10-28T00:58:31.802Z,14.23
2022-10-28T00:59:31.774Z,14.29
2022-10-28T01:00:31.747Z,14.22
2022-10-28T01:01:31.846Z,14.17
2022-10-28T01:02:31.746Z,14.20
2022-10-28T01:03:31.756Z,14.15
2022-10-28T01:04:31.601Z,14.14
2022-10-28T01:05:31.604Z,14.23
2022-10-28T01:06:31.587Z,14.28
2022-10-28T01:07:31.518Z,14.18
2022-10-28T01:08:31.479Z,14.20
2022-10-28T01:09:31.523Z,14.23
2022-10-28T01:10:31.410Z,14.25
2022-10-28T01:11:31.405Z,14.23
2022-10-28T01:12:31.395Z,14.18
2022-10-28T01:13:31.371Z,14.23
2022-10-28T01:14:31.289Z,14.15
2022-10-28T01:15:31.283Z,14.15
2022-10-28T01:16:31.269Z,14.12
2022-10-28T01:17:31.199Z,14.12
2022-10-28T01:18:31.239Z,14.11
2022-10-28T01:19:31.190Z,14.10
2022-10-28T01:20:33.923Z,14.08
2022-10-28T01:21:31.153Z,14.08
2022-10-28T01:23:31.041Z,13.97
2022-10-28T01:24:31.016Z,13.93
2022-10-28T01:25:30.959Z,13.93
2022-10-28T01:26:30.971Z,13.93
2022-10-28T01:27:30.983Z,13.90
2022-10-28T01:28:30.851Z,13.86
2022-10-28T01:29:30.859Z,13.74
2022-10-28T01:30:30.819Z,13.79
2022-10-28T01:31:30.795Z,13.74
2022-10-28T01:32:30.722Z,13.65
2022-10-28T01:33:30.767Z,13.67
2022-10-28T01:34:30.695Z,13.72
2022-10-28T01:36:35.911Z,13.56
2022-10-28T01:37:30.593Z,13.57
2022-10-28T01:38:30.542Z,13.59
2022-10-28T01:39:30.634Z,13.54
2022-10-28T01:40:30.479Z,13.46
2022-10-28T01:41:30.459Z,13.42
2022-10-28T01:42:30.429Z,13.49
2022-10-28T01:43:30.455Z,13.42
2022-10-28T01:44:30.350Z,13.41
2022-10-28T01:45:30.378Z,13.33
2022-10-28T01:46:30.300Z,13.31
2022-10-28T01:47:30.274Z,13.27
2022-10-28T01:48:30.251Z,13.19
2022-10-28T01:49:30.217Z,13.20
2022-10-28T01:50:30.176Z,13.25
2022-10-28T01:51:30.226Z,13.15
2022-10-28T01:52:30.128Z,13.20
2022-10-28T01:53:30.079Z,13.16
2022-10-28T01:54:30.110Z,13.20
2022-10-28T01:55:30.041Z,13.13
2022-10-28T01:56:29.969Z,13.13
2022-10-28T01:57:29.938Z,13.15
2022-10-28T01:58:29.933Z,13.18
2022-10-28T01:59:29.894Z,13.16
2022-10-28T02:00:29.948Z,13.15
2022-10-28T02:01:29.974Z,13.19
2022-10-28T02:02:29.778Z,13.09
2022-10-28T02:03:29.766Z,13.13
2022-10-28T02:04:29.793Z,13.05
2022-10-28T02:05:29.776Z,13.09
2022-10-28T02:06:29.679Z,13.11
2022-10-28T02:07:29.630Z,13.09
2022-10-28T02:08:29.604Z,13.11
2022-10-28T02:09:29.575Z,13.00
2022-10-28T02:10:29.631Z,13.01
2022-10-28T02:11:29.649Z,12.94
2022-10-28T02:12:29.470Z,12.91
2022-10-28T02:13:29.448Z,12.90
2022-10-28T02:14:29.401Z,12.87
2022-10-28T02:15:29.373Z,12.85
2022-10-28T02:16:29.415Z,12.93
2022-10-28T02:17:29.312Z,12.91
2022-10-28T02:18:29.287Z,12.97
2022-10-28T02:19:29.243Z,13.00
2022-10-28T02:20:29.207Z,12.87
2022-10-28T02:21:29.182Z,12.93
2022-10-28T02:22:29.280Z,12.90
2022-10-28T02:23:29.183Z,12.76
2022-10-28T02:24:29.123Z,12.82
2022-10-28T02:25:29.055Z,12.80
2022-10-28T02:26:29.027Z,12.91
2022-10-28T02:27:28.992Z,12.95
2022-10-28T02:28:29.102Z,12.90
2022-10-28T02:29:28.931Z,12.97
2022-10-28T02:30:28.904Z,12.90
2022-10-28T02:31:28.938Z,12.94
2022-10-28T02:32:28.837Z,12.93
2022-10-28T02:33:28.800Z,12.97
2022-10-28T02:34:28.777Z,12.98
2022-10-28T02:35:28.744Z,12.90
2022-10-28T02:36:28.717Z,12.90
2022-10-28T02:37:28.780Z,12.90
2022-10-28T02:38:28.651Z,12.95
2022-10-28T02:39:28.641Z,12.86
2022-10-28T02:40:28.607Z,12.83
2022-10-28T02:41:28.580Z,12.80
2022-10-28T02:42:28.567Z,12.86
2022-10-28T02:43:28.476Z,12.90
2022-10-28T02:44:29.427Z,12.78
2022-10-28T02:45:28.461Z,12.86
2022-10-28T02:46:28.382Z,12.90
2022-10-28T02:47:28.464Z,12.85
2022-10-28T02:48:28.313Z,12.76
2022-10-28T02:49:28.293Z,12.79
2022-10-28T02:50:28.291Z,12.67
2022-10-28T02:51:28.222Z,12.73
2022-10-28T02:52:28.199Z,12.79
2022-10-28T02:53:28.249Z,12.73
2022-10-28T02:54:28.163Z,12.78
2022-10-28T02:55:28.932Z,12.72
2022-10-28T02:56:28.070Z,12.82
2022-10-28T02:57:28.035Z,12.70
2022-10-28T02:58:28.075Z,12.70
2022-10-28T02:59:27.963Z,12.62
2022-10-28T03:00:27.954Z,12.53
2022-10-28T03:01:28.008Z,12.67
2022-10-28T03:02:27.880Z,12.55
2022-10-28T03:03:27.841Z,12.54
2022-10-28T03:04:27.881Z,12.61
2022-10-28T03:05:27.763Z,12.64
2022-10-28T03:06:27.741Z,12.65
2022-10-28T03:07:27.730Z,12.62
2022-10-28T03:08:27.678Z,12.67
2022-10-28T03:09:27.674Z,12.54
2022-10-28T03:10:27.709Z,12.55
2022-10-28T03:11:27.633Z,12.55
2022-10-28T03:12:27.589Z,12.55
2022-10-28T03:13:27.517Z,12.58
2022-10-28T03:14:27.496Z,12.46
2022-10-28T03:15:30.082Z,12.46
2022-10-28T03:16:27.663Z,12.39
2022-10-28T03:17:27.472Z,12.49
2022-10-28T03:18:27.447Z,12.29
2022-10-28T03:19:27.320Z,12.31
2022-10-28T03:20:27.302Z,12.25
2022-10-28T03:21:27.255Z,12.29
2022-10-28T03:22:27.223Z,12.28
2022-10-28T03:23:27.222Z,12.21
2022-10-28T03:24:27.235Z,12.27
2022-10-28T03:25:27.130Z,12.27
2022-10-28T03:26:27.941Z,12.29
2022-10-28T03:27:27.062Z,12.28
2022-10-28T03:28:27.040Z,12.29
2022-10-28T03:29:27.062Z,12.27
2022-10-28T03:30:26.972Z,12.24
2022-10-28T03:31:26.929Z,12.17
2022-10-28T03:32:26.912Z,12.22
2022-10-28T03:33:26.879Z,12.20
2022-10-28T03:34:26.893Z,12.17
2022-10-28T03:35:26.812Z,12.18
2022-10-28T03:36:26.782Z,12.07
2022-10-28T03:37:26.763Z,12.21
2022-10-28T03:38:26.712Z,12.15
2022-10-28T03:39:26.683Z,12.21
2022-10-28T03:40:26.702Z,12.27
2022-10-28T03:41:26.630Z,12.15
2022-10-28T03:42:26.587Z,12.10
2022-10-28T03:43:26.549Z,12.04
2022-10-28T03:44:26.518Z,12.09
2022-10-28T03:45:26.573Z,12.09
2022-10-28T03:46:26.475Z,12.10
2022-10-28T03:47:26.421Z,12.09
2022-10-28T03:48:26.395Z,12.12
2022-10-28T03:49:26.353Z,12.06
2022-10-28T03:50:26.418Z,12.06
2022-10-28T03:51:26.293Z,12.09
2022-10-28T03:52:26.268Z,12.10
2022-10-28T03:53:27.701Z,12.06
2022-10-28T03:54:26.200Z,12.13
2022-10-28T03:55:26.169Z,12.12
2022-10-28T03:56:26.188Z,12.09
2022-10-28T03:57:26.103Z,12.13
2022-10-28T03:58:26.062Z,12.20
2022-10-28T03:59:26.031Z,12.10
2022-10-28T04:00:26.005Z,12.04
2022-10-28T04:01:26.135Z,11.97
2022-10-28T04:02:26.128Z,11.99
2022-10-28T04:03:25.938Z,11.90
2022-10-28T04:04:28.491Z,11.95
2022-10-28T04:05:25.828Z,11.99
2022-10-28T04:06:25.805Z,12.12
2022-10-28T04:07:25.790Z,12.21
2022-10-28T04:08:25.815Z,12.17
2022-10-28T04:09:25.711Z,12.29
2022-10-28T04:10:26.636Z,12.27
2022-10-28T04:11:25.688Z,12.28
2022-10-28T04:12:25.680Z,12.17
2022-10-28T04:13:26.455Z,12.22
2022-10-28T04:14:25.539Z,12.17
2022-10-28T04:15:25.506Z,12.13
2022-10-28T04:16:25.479Z,11.97
2022-10-28T04:17:25.496Z,11.97
2022-10-28T04:18:25.503Z,12.00
2022-10-28T04:19:25.404Z,11.95
2022-10-28T04:20:27.452Z,12.00
2022-10-28T04:21:25.319Z,12.00
2022-10-28T04:22:25.315Z,11.95
2022-10-28T04:23:25.250Z,11.94
2022-10-28T04:24:25.270Z,12.09
2022-10-28T04:25:25.197Z,11.97
2022-10-28T04:26:25.160Z,11.95
2022-10-28T04:27:25.139Z,11.90
2022-10-28T04:28:25.143Z,11.84
2022-10-28T04:29:25.126Z,11.90
2022-10-28T04:30:25.015Z,11.83
2022-10-28T04:31:25.004Z,11.86
2022-10-28T04:32:24.960Z,11.73
2022-10-28T04:33:24.928Z,11.75
2022-10-28T04:34:24.911Z,11.84
2022-10-28T04:35:25.075Z,11.84
2022-10-28T04:36:24.821Z,11.99
2022-10-28T04:37:24.809Z,11.95
2022-10-28T04:39:24.773Z,11.99
2022-10-28T04:40:24.698Z,11.91
2022-10-28T04:41:24.730Z,12.02
2022-10-28T04:42:24.638Z,11.99
2022-10-28T04:43:24.592Z,11.95
2022-10-28T04:44:24.597Z,12.06
2022-10-28T04:45:24.535Z,11.99
2022-10-28T04:46:24.507Z,11.95
2022-10-28T04:47:24.545Z,12.07
2022-10-28T04:48:24.434Z,11.99
2022-10-28T04:49:24.398Z,12.03
2022-10-28T04:50:24.362Z,12.09
2022-10-28T04:51:24.334Z,11.97
2022-10-28T04:52:24.303Z,11.97
2022-10-28T04:53:24.353Z,11.97
2022-10-28T04:54:24.242Z,11.84
2022-10-28T04:55:24.204Z,11.78
2022-10-28T04:56:24.177Z,11.77
2022-10-28T04:57:24.138Z,11.81
2022-10-28T04:58:24.109Z,11.81
2022-10-28T04:59:24.127Z,11.77
2022-10-28T05:00:24.046Z,11.81
2022-10-28T05:01:24.115Z,11.83
2022-10-28T05:02:24.064Z,11.81
2022-10-28T05:03:24.004Z,11.73
2022-10-28T05:04:23.910Z,11.75
2022-10-28T05:05:23.891Z,11.63
2022-10-28T05:06:23.841Z,11.68
2022-10-28T05:07:23.808Z,11.66
2022-10-28T05:08:23.837Z,11.70
2022-10-28T05:09:23.745Z,11.80
2022-10-28T05:10:23.722Z,11.84
2022-10-28T05:11:23.679Z,11.94
2022-10-28T05:12:23.647Z,11.95
2022-10-28T05:13:23.610Z,12.04
2022-10-28T05:14:23.650Z,12.03
2022-10-28T05:15:23.550Z,11.99
2022-10-28T05:16:23.519Z,12.13
2022-10-28T05:17:23.476Z,12.04
2022-10-28T05:18:23.449Z,12.12
2022-10-28T05:19:23.423Z,12.15
2022-10-28T05:20:23.449Z,12.18
2022-10-28T05:21:23.348Z,12.22
2022-10-28T05:22:23.318Z,12.21
2022-10-28T05:23:25.862Z,12.29
2022-10-28T05:24:23.251Z,12.31
2022-10-28T05:25:23.220Z,12.35
2022-10-28T05:26:23.259Z,12.32
2022-10-28T05:27:24.076Z,12.42
2022-10-28T05:28:23.125Z,12.43
2022-10-28T05:29:23.124Z,12.39
2022-10-28T05:30:23.056Z,12.43
2022-10-28T05:31:23.028Z,12.43
2022-10-28T05:32:23.056Z,12.42
2022-10-28T05:33:23.575Z,12.40
2022-10-28T05:34:22.926Z,12.45
2022-10-28T05:35:22.900Z,12.43
2022-10-28T05:36:22.871Z,12.42
2022-10-28T05:37:22.831Z,12.43
2022-10-28T05:38:22.848Z,12.40
2022-10-28T05:39:22.769Z,12.42
2022-10-28T05:40:22.737Z,12.43
2022-10-28T05:41:23.384Z,12.40
2022-10-28T05:42:22.666Z,12.39
2022-10-28T05:43:22.700Z,12.43
2022-10-28T05:44:22.603Z,12.42
2022-10-28T05:45:22.640Z,12.47
2022-10-28T05:46:22.541Z,12.47
2022-10-28T05:47:22.507Z,12.47
2022-10-28T05:48:22.480Z,12.46
2022-10-28T05:49:22.509Z,12.47
2022-10-28T05:50:22.411Z,12.46
2022-10-28T05:51:22.373Z,12.47
2022-10-28T05:52:22.347Z,12.45
2022-10-28T05:53:22.319Z,12.46
2022-10-28T05:54:22.287Z,12.49
2022-10-28T05:55:22.311Z,12.49
2022-10-28T05:56:22.216Z,12.46
2022-10-28T05:57:22.182Z,12.49
2022-10-28T05:58:22.151Z,12.46
2022-10-28T05:59:22.126Z,12.46
2022-10-28T06:00:22.145Z,12.46
2022-10-28T06:01:22.160Z,12.46
2022-10-28T06:02:22.023Z,12.46
2022-10-28T06:03:23.373Z,12.50
2022-10-28T06:04:21.955Z,12.47
2022-10-28T06:05:21.938Z,12.43
2022-10-28T06:06:21.954Z,12.39
2022-10-28T06:07:21.901Z,12.28
2022-10-28T06:08:21.826Z,12.36
2022-10-28T06:09:21.805Z,12.35
2022-10-28T06:10:21.766Z,12.36
2022-10-28T06:11:20.204Z,12.25
2022-10-28T06:12:20.224Z,12.29
2022-10-28T06:13:20.133Z,12.28
2022-10-28T06:14:20.108Z,12.27
2022-10-28T06:15:20.073Z,12.29
2022-10-28T06:16:20.039Z,12.28
2022-10-28T06:17:20.089Z,12.28
2022-10-28T06:18:19.979Z,12.25
2022-10-28T06:19:19.951Z,12.28
2022-10-28T06:20:19.916Z,12.31
2022-10-28T06:21:19.884Z,12.31
2022-10-28T06:22:20.454Z,12.28
2022-10-28T06:23:19.920Z,12.28
2022-10-28T06:24:19.828Z,12.24
2022-10-28T06:25:19.788Z,12.17
2022-10-28T06:26:19.725Z,12.21
2022-10-28T06:27:19.698Z,12.24
2022-10-28T06:28:19.663Z,12.22
2022-10-28T06:29:19.692Z,12.36
2022-10-28T06:30:19.598Z,12.24
2022-10-28T06:31:19.571Z,12.32
2022-10-28T06:32:19.569Z,12.29
2022-10-28T06:33:19.561Z,12.43
2022-10-28T06:34:19.477Z,12.43
2022-10-28T06:35:19.447Z,12.50
2022-10-28T06:36:19.412Z,12.46
2022-10-28T06:37:19.381Z,12.49
2022-10-28T06:38:19.413Z,12.49
2022-10-28T06:39:19.337Z,12.46
2022-10-28T06:40:19.284Z,12.47
2022-10-28T06:41:19.253Z,12.55
2022-10-28T06:42:19.225Z,12.58
2022-10-28T06:43:19.192Z,12.58
2022-10-28T06:44:19.666Z,12.54
2022-10-28T06:45:19.128Z,12.55
2022-10-28T06:46:19.100Z,12.61
2022-10-28T06:47:20.581Z,12.67
2022-10-28T06:48:20.556Z,12.65
2022-10-28T06:49:20.581Z,12.67
2022-10-28T06:50:20.485Z,12.72
2022-10-28T06:51:20.461Z,12.76
2022-10-28T06:52:20.422Z,12.78
2022-10-28T06:53:20.458Z,12.67
2022-10-28T06:54:20.361Z,12.73
2022-10-28T06:55:20.410Z,12.82
2022-10-28T06:56:20.302Z,12.68
2022-10-28T06:57:20.267Z,12.76
2022-10-28T06:58:20.238Z,12.79
2022-10-28T06:59:20.203Z,12.91
2022-10-28T07:00:20.235Z,12.94
2022-10-28T07:01:20.295Z,12.90
2022-10-28T07:02:20.209Z,13.00
2022-10-28T07:03:20.085Z,13.01
2022-10-28T07:04:20.049Z,13.01
2022-10-28T07:05:20.039Z,13.01
2022-10-28T07:06:19.988Z,13.11
2022-10-28T07:07:20.016Z,13.16
2022-10-28T07:08:19.921Z,13.12
2022-10-28T07:09:19.891Z,13.28
2022-10-28T07:10:19.864Z,13.19
2022-10-28T07:11:19.830Z,13.28
2022-10-28T07:12:20.640Z,13.20
2022-10-28T07:13:19.816Z,13.23
2022-10-28T07:14:19.744Z,13.31
2022-10-28T07:15:19.705Z,13.30
2022-10-28T07:16:19.679Z,13.41
2022-10-28T07:17:19.692Z,13.47
2022-10-28T07:18:19.619Z,13.50
2022-10-28T07:19:22.639Z,13.63
2022-10-28T07:20:19.545Z,13.65
2022-10-28T07:21:19.588Z,13.72
2022-10-28T07:22:23.473Z,13.78
2022-10-28T07:23:19.459Z,13.86
2022-10-28T07:24:19.458Z,13.89
2022-10-28T07:25:19.397Z,13.87
2022-10-28T07:26:19.419Z,13.96
2022-10-28T07:27:19.340Z,13.87
2022-10-28T07:28:19.304Z,13.99
2022-10-28T07:29:19.272Z,13.99
2022-10-28T07:30:19.244Z,14.05
2022-10-28T07:31:19.286Z,13.97
2022-10-28T07:32:19.183Z,14.00
2022-10-28T07:33:19.152Z,13.95
2022-10-28T07:34:21.126Z,13.93
2022-10-28T07:35:19.088Z,13.95
2022-10-28T07:36:19.128Z,13.99
2022-10-28T07:37:19.033Z,14.07
2022-10-28T07:38:18.988Z,14.10
2022-10-28T07:39:18.959Z,14.14
2022-10-28T07:40:18.929Z,14.15
2022-10-28T07:41:18.900Z,14.17
2022-10-28T07:42:18.916Z,14.26
2022-10-28T07:43:18.846Z,14.23
2022-10-28T07:44:18.804Z,14.29
2022-10-28T07:45:18.776Z,14.33
2022-10-28T07:46:18.743Z,14.29
2022-10-28T07:47:18.766Z,14.30
2022-10-28T07:48:18.690Z,14.32
2022-10-28T07:49:18.646Z,14.28
2022-10-28T07:50:18.613Z,14.30
2022-10-28T07:51:18.587Z,14.37
2022-10-28T07:52:18.623Z,14.48
2022-10-28T07:53:18.523Z,14.45
2022-10-28T07:54:18.487Z,14.59
2022-10-28T07:55:18.458Z,14.62
2022-10-28T07:56:18.426Z,14.68
2022-10-28T07:57:18.395Z,14.70
2022-10-28T07:58:18.413Z,14.77
2022-10-28T07:59:18.341Z,14.82
2022-10-28T08:00:18.297Z,14.94
2022-10-28T08:01:18.428Z,15.06
2022-10-28T08:02:18.243Z,14.97
2022-10-28T08:03:18.201Z,15.02
2022-10-28T08:04:18.204Z,15.11
2022-10-28T08:05:18.135Z,15.18
2022-10-28T08:06:18.104Z,15.31
2022-10-28T08:07:18.136Z,15.37
2022-10-28T08:08:18.059Z,15.57
2022-10-28T08:09:17.998Z,15.65
2022-10-28T08:10:17.970Z,15.83
2022-10-28T08:11:18.015Z,15.98
2022-10-28T08:12:17.901Z,16.02
2022-10-28T08:13:17.930Z,16.24
2022-10-28T08:14:17.844Z,16.28
2022-10-28T08:15:17.804Z,16.32
2022-10-28T08:16:17.776Z,16.42
2022-10-28T08:17:17.745Z,16.50
2022-10-28T08:18:17.714Z,16.53
2022-10-28T08:19:17.740Z,16.46
2022-10-28T08:20:17.652Z,16.50
2022-10-28T08:21:17.629Z,16.61
2022-10-28T08:22:17.592Z,16.74
2022-10-28T08:23:17.556Z,16.72
2022-10-28T08:24:17.540Z,16.81
2022-10-28T08:25:17.570Z,16.87
2022-10-28T08:26:17.464Z,16.91
2022-10-28T08:27:17.440Z,17.02
2022-10-28T08:28:17.413Z,17.08
2022-10-28T08:29:17.375Z,17.24
2022-10-28T08:30:17.347Z,17.29
2022-10-28T08:31:17.379Z,17.29
2022-10-28T08:32:17.296Z,17.38
2022-10-28T08:33:17.263Z,17.48
2022-10-28T08:34:17.276Z,17.63
2022-10-28T08:35:17.205Z,17.54
2022-10-28T08:36:17.174Z,17.67
2022-10-28T08:37:17.224Z,17.67
2022-10-28T08:38:17.111Z,17.82
2022-10-28T08:39:17.107Z,17.71
2022-10-28T08:40:17.057Z,17.74
2022-10-28T08:41:17.038Z,17.83
2022-10-28T08:42:17.000Z,17.83
2022-10-28T08:43:17.041Z,17.86
2022-10-28T08:44:16.943Z,17.79
2022-10-28T08:45:16.919Z,17.80
2022-10-28T08:46:16.889Z,17.74
2022-10-28T08:47:16.868Z,17.70
2022-10-28T08:48:16.835Z,17.70
2022-10-28T08:49:16.852Z,17.70
2022-10-28T08:50:16.772Z,17.70
2022-10-28T08:51:17.631Z,17.67
2022-10-28T08:52:16.715Z,17.67
2022-10-28T08:53:16.749Z,17.68
2022-10-28T08:54:16.655Z,17.67
2022-10-28T08:55:16.633Z,17.70
2022-10-28T08:56:16.610Z,17.80
2022-10-28T08:57:18.069Z,17.89
2022-10-28T08:58:16.550Z,17.94
2022-10-28T08:59:16.568Z,18.04
2022-10-28T09:00:16.495Z,18.04
2022-10-28T09:01:16.545Z,18.19
2022-10-28T09:02:16.434Z,18.33
2022-10-28T09:03:16.400Z,18.38
2022-10-28T09:04:16.367Z,18.49
2022-10-28T09:05:16.399Z,18.66
2022-10-28T09:06:16.377Z,18.63
2022-10-28T09:07:16.289Z,18.83
2022-10-28T09:08:16.262Z,18.84
2022-10-28T09:09:16.234Z,18.81
2022-10-28T09:10:16.204Z,18.88
2022-10-28T09:11:16.175Z,18.90
2022-10-28T09:12:16.196Z,18.84
2022-10-28T09:13:16.133Z,18.78
2022-10-28T09:14:16.092Z,18.81
2022-10-28T09:15:16.063Z,18.78
2022-10-28T09:16:16.333Z,18.75
2022-10-28T09:17:16.075Z,18.78
2022-10-28T09:18:15.983Z,18.77
2022-10-28T09:19:15.954Z,18.75
2022-10-28T09:20:15.932Z,18.77
2022-10-28T09:21:15.900Z,18.77
2022-10-28T09:22:19.950Z,18.75
2022-10-28T09:23:15.837Z,18.86
2022-10-28T09:24:15.873Z,18.88
2022-10-28T09:25:15.786Z,18.93
2022-10-28T09:26:15.756Z,18.92
2022-10-28T09:27:15.742Z,19.14
2022-10-28T09:28:15.723Z,19.26
2022-10-28T09:29:15.737Z,19.34
2022-10-28T09:30:15.643Z,19.44
2022-10-28T09:31:15.620Z,19.39
2022-10-28T09:32:15.589Z,19.47
2022-10-28T09:33:15.562Z,19.55
2022-10-28T09:34:15.531Z,19.55
2022-10-28T09:35:15.592Z,19.45
2022-10-28T09:36:15.540Z,19.55
2022-10-28T09:37:15.453Z,19.52
2022-10-28T09:38:15.423Z,19.49
2022-10-28T09:39:15.398Z,19.52
2022-10-28T09:40:15.367Z,19.49
2022-10-28T09:41:15.343Z,19.47
2022-10-28T09:42:15.376Z,19.41
2022-10-28T09:43:15.290Z,19.40
2022-10-28T09:44:15.263Z,19.40
2022-10-28T09:45:15.233Z,19.44
2022-10-28T09:46:15.208Z,19.37
2022-10-28T09:47:15.248Z,19.39
2022-10-28T09:48:16.053Z,19.33
2022-10-28T09:49:15.128Z,19.26
2022-10-28T09:50:15.094Z,19.31
2022-10-28T09:51:15.143Z,19.31
2022-10-28T09:52:16.151Z,19.33
2022-10-28T09:53:15.074Z,19.33
2022-10-28T09:54:14.989Z,19.34
2022-10-28T09:55:14.958Z,19.36
2022-10-28T09:56:15.019Z,19.36
2022-10-28T09:57:17.237Z,19.37
2022-10-28T09:58:14.898Z,19.34
2022-10-28T09:59:14.927Z,19.40
2022-10-28T10:00:14.822Z,19.59
2022-10-28T10:01:14.814Z,19.52
2022-10-28T10:02:14.827Z,19.55
2022-10-28T10:03:14.737Z,19.51
2022-10-28T10:04:14.718Z,19.52
2022-10-28T10:05:17.078Z,19.51
2022-10-28T10:06:14.653Z,19.62
2022-10-28T10:07:14.624Z,19.66
2022-10-28T10:08:15.553Z,19.64
2022-10-28T10:09:14.570Z,19.77
2022-10-28T10:10:14.543Z,19.73
2022-10-28T10:11:14.572Z,19.77
2022-10-28T10:12:14.490Z,19.86
2022-10-28T10:13:14.479Z,19.85
2022-10-28T10:14:14.438Z,19.85
2022-10-28T10:15:14.407Z,19.88
2022-10-28T10:16:14.569Z,19.88
2022-10-28T10:17:14.353Z,19.94
2022-10-28T10:18:14.334Z,19.89
2022-10-28T10:19:14.303Z,19.96
2022-10-28T10:20:14.270Z,19.91
2022-10-28T10:21:14.251Z,20.04
2022-10-28T10:22:14.290Z,19.96
2022-10-28T10:23:14.182Z,20.02
2022-10-28T10:24:14.158Z,20.03
2022-10-28T10:25:14.140Z,20.11
2022-10-28T10:26:14.107Z,20.11
2022-10-28T10:27:14.075Z,20.14
2022-10-28T10:28:15.057Z,20.13
2022-10-28T10:29:14.021Z,20.18
2022-10-28T10:30:13.993Z,20.13
2022-10-28T10:31:13.965Z,20.22
2022-10-28T10:32:13.935Z,20.18
2022-10-28T10:33:13.905Z,20.28
2022-10-28T10:34:13.941Z,20.26
2022-10-28T10:35:13.859Z,20.25
2022-10-28T10:36:13.826Z,20.31
2022-10-28T10:37:13.804Z,20.25
2022-10-28T10:38:13.777Z,20.32
2022-10-28T10:39:13.744Z,20.36
2022-10-28T10:40:13.775Z,20.50
2022-10-28T10:41:13.693Z,20.39
2022-10-28T10:42:13.722Z,20.51
2022-10-28T10:43:14.129Z,20.51
2022-10-28T10:44:13.610Z,20.52
2022-10-28T10:45:13.583Z,20.44
2022-10-28T10:46:13.556Z,20.48
2022-10-28T10:47:13.655Z,20.50
2022-10-28T10:48:13.498Z,20.60
2022-10-28T10:49:13.478Z,20.52
2022-10-28T10:50:13.443Z,20.55
2022-10-28T10:51:13.419Z,20.60
2022-10-28T10:52:13.446Z,20.60
2022-10-28T10:53:13.430Z,20.56
2022-10-28T10:54:13.338Z,20.62
2022-10-28T10:55:13.305Z,20.62
2022-10-28T10:56:13.282Z,20.63
2022-10-28T10:57:13.262Z,20.67
2022-10-28T10:58:13.228Z,20.72
2022-10-28T10:59:13.259Z,20.72
2022-10-28T11:00:13.173Z,20.70
2022-10-28T11:01:13.179Z,20.70
2022-10-28T11:02:13.248Z,20.82
2022-10-28T11:03:13.094Z,20.81
2022-10-28T11:04:13.065Z,20.92
2022-10-28T11:05:13.087Z,20.95
2022-10-28T11:06:23.603Z,20.93
2022-10-28T11:07:12.980Z,21.06
2022-10-28T11:08:12.953Z,21.07
2022-10-28T11:10:12.899Z,21.15
2022-10-28T11:11:12.921Z,21.21
2022-10-28T11:12:12.849Z,21.22
2022-10-28T11:13:12.873Z,21.25
2022-10-28T11:14:12.792Z,21.21
2022-10-28T11:15:12.771Z,21.21
2022-10-28T11:16:12.742Z,21.22
2022-10-28T11:17:12.766Z,21.20
2022-10-28T11:18:12.752Z,21.20
2022-10-28T11:19:12.696Z,21.24
2022-10-28T11:20:12.633Z,21.24
2022-10-28T11:21:12.674Z,21.30
2022-10-28T11:22:12.585Z,21.37
2022-10-28T11:23:12.554Z,21.36
2022-10-28T11:24:12.583Z,21.35
2022-10-28T11:25:12.491Z,21.35
2022-10-28T11:26:12.468Z,21.48
2022-10-28T11:27:12.446Z,21.48
2022-10-28T11:28:12.418Z,21.55
2022-10-28T11:29:12.403Z,21.51
2022-10-28T11:30:12.418Z,21.58
2022-10-28T11:31:12.343Z,21.62
2022-10-28T11:32:12.323Z,21.57
2022-10-28T11:33:29.429Z,21.64
2022-10-28T11:34:12.253Z,21.64
2022-10-28T11:35:12.307Z,21.67
2022-10-28T11:36:12.266Z,21.62
2022-10-28T11:37:12.177Z,21.66
2022-10-28T11:38:12.145Z,21.58
2022-10-28T11:39:12.133Z,21.64
2022-10-28T11:40:12.094Z,21.67
2022-10-28T11:41:12.069Z,21.62
2022-10-28T11:42:12.131Z,21.70
2022-10-28T11:43:12.018Z,21.80
2022-10-28T11:44:11.995Z,21.80
2022-10-28T11:45:12.692Z,21.75
2022-10-28T11:46:11.940Z,21.91
2022-10-28T11:47:11.915Z,21.95
2022-10-28T11:48:11.953Z,22.00
2022-10-28T11:49:11.863Z,22.00
2022-10-28T11:50:11.842Z,22.04
2022-10-28T11:51:11.813Z,22.14
2022-10-28T11:52:11.779Z,22.15
2022-10-28T11:53:11.750Z,22.18
2022-10-28T11:54:11.780Z,22.25
2022-10-28T11:55:11.728Z,22.35
2022-10-28T11:56:11.675Z,22.48
2022-10-28T11:57:11.647Z,22.48
2022-10-28T11:58:11.629Z,22.54
2022-10-28T11:59:11.593Z,22.55
2022-10-28T12:00:11.627Z,22.72
2022-10-28T12:01:11.660Z,22.75
2022-10-28T12:02:11.661Z,22.70
2022-10-28T12:03:11.539Z,22.72
2022-10-28T12:04:11.465Z,22.78
2022-10-28T12:05:11.437Z,22.78
2022-10-28T12:06:11.485Z,22.99
2022-10-28T12:07:11.394Z,22.98
2022-10-28T12:08:11.361Z,23.03
2022-10-28T12:09:11.336Z,23.13
2022-10-28T12:10:11.315Z,23.28
2022-10-28T12:11:11.288Z,23.31
2022-10-28T12:12:11.316Z,23.28
2022-10-28T12:13:11.237Z,23.37
2022-10-28T12:14:11.262Z,23.40
2022-10-28T12:15:11.184Z,23.48
2022-10-28T12:16:11.158Z,23.46
2022-10-28T12:17:12.205Z,23.48
2022-10-28T12:18:11.162Z,23.51
2022-10-28T12:19:11.085Z,23.54
2022-10-28T12:20:11.057Z,23.50
2022-10-28T12:21:11.077Z,23.55
2022-10-28T12:22:11.062Z,23.51
2022-10-28T12:23:11.000Z,23.36
2022-10-28T12:24:10.957Z,23.36
2022-10-28T12:25:11.016Z,23.34
2022-10-28T12:26:10.912Z,23.23
2022-10-28T12:27:15.284Z,23.13
2022-10-28T12:28:10.944Z,23.10
2022-10-28T12:29:10.835Z,23.10
2022-10-28T12:30:10.811Z,23.05
2022-10-28T12:31:10.780Z,23.00
2022-10-28T12:32:10.810Z,23.03
2022-10-28T12:33:10.732Z,23.06
2022-10-28T12:34:10.708Z,22.98
2022-10-28T12:35:10.685Z,23.00
2022-10-28T12:36:10.720Z,22.98
2022-10-28T12:37:10.635Z,23.05
2022-10-28T12:38:10.607Z,22.99
2022-10-28T12:39:10.587Z,23.03
2022-10-28T12:40:10.566Z,23.00
2022-10-28T12:41:10.533Z,23.00
2022-10-28T12:42:10.569Z,23.02
2022-10-28T12:43:10.542Z,22.99
2022-10-28T12:44:10.464Z,22.99
2022-10-28T12:45:10.429Z,22.94
2022-10-28T12:46:10.410Z,22.88
2022-10-28T12:47:10.380Z,22.84
2022-10-28T12:48:10.415Z,22.84
2022-10-28T12:49:10.331Z,22.81
2022-10-28T12:50:10.307Z,22.84
2022-10-28T12:51:10.281Z,22.81
2022-10-28T12:52:10.258Z,22.87
2022-10-28T12:53:10.304Z,22.81
2022-10-28T12:54:10.207Z,22.80
2022-10-28T12:55:10.205Z,22.78
2022-10-28T12:56:10.188Z,22.80